sensor_id;sensor_type;location;lat;lon;timestamp;P1;durP1;ratioP1;P2;durP2;ratioP2
48534;SDS011;34323;52.022;5.686;2023-02-04T00:00:47;17.73;;;3.33;;
48534;SDS011;34323;52.022;5.686;2023-02-04T00:03:13;13.63;;;3.25;;
48534;SDS011;34323;52.022;5.686;2023-02-04T00:05:40;16.55;;;3.20;;
48534;SDS011;34323;52.022;5.686;2023-02-04T00:08:06;12.98;;;2.35;;
48534;SDS011;34323;52.022;5.686;2023-02-04T00:10:32;22.95;;;3.38;;
48534;SDS011;34323;52.022;5.686;2023-02-04T00:12:58;18.17;;;2.97;;
48534;SDS011;34323;52.022;5.686;2023-02-04T00:15:23;20.17;;;3.22;;
48534;SDS011;34323;52.022;5.686;2023-02-04T00:17:49;19.35;;;3.38;;
48534;SDS011;34323;52.022;5.686;2023-02-04T00:20:14;12.20;;;2.53;;
48534;SDS011;34323;52.022;5.686;2023-02-04T00:22:40;19.42;;;2.65;;
48534;SDS011;34323;52.022;5.686;2023-02-04T00:25:06;14.57;;;3.15;;
48534;SDS011;34323;52.022;5.686;2023-02-04T00:27:32;12.32;;;2.58;;
48534;SDS011;34323;52.022;5.686;2023-02-04T00:29:57;18.33;;;3.03;;
48534;SDS011;34323;52.022;5.686;2023-02-04T00:32:23;12.10;;;2.95;;
48534;SDS011;34323;52.022;5.686;2023-02-04T00:34:49;9.05;;;2.20;;
48534;SDS011;34323;52.022;5.686;2023-02-04T00:37:14;18.25;;;3.72;;
48534;SDS011;34323;52.022;5.686;2023-02-04T00:39:40;13.60;;;2.88;;
48534;SDS011;34323;52.022;5.686;2023-02-04T00:42:05;14.43;;;2.22;;
48534;SDS011;34323;52.022;5.686;2023-02-04T00:44:31;11.48;;;2.85;;
48534;SDS011;34323;52.022;5.686;2023-02-04T00:46:57;12.40;;;2.55;;
48534;SDS011;34323;52.022;5.686;2023-02-04T00:49:23;30.55;;;3.10;;
48534;SDS011;34323;52.022;5.686;2023-02-04T00:51:48;17.02;;;2.65;;
48534;SDS011;34323;52.022;5.686;2023-02-04T00:54:15;16.65;;;2.38;;
48534;SDS011;34323;52.022;5.686;2023-02-04T00:56:41;15.63;;;3.42;;
48534;SDS011;34323;52.022;5.686;2023-02-04T00:59:07;14.15;;;2.90;;
48534;SDS011;34323;52.022;5.686;2023-02-04T01:01:33;20.85;;;3.25;;
48534;SDS011;34323;52.022;5.686;2023-02-04T01:03:59;10.70;;;2.83;;
48534;SDS011;34323;52.022;5.686;2023-02-04T01:06:24;12.15;;;3.42;;
48534;SDS011;34323;52.022;5.686;2023-02-04T01:08:50;12.55;;;3.20;;
48534;SDS011;34323;52.022;5.686;2023-02-04T01:11:16;9.38;;;2.28;;
48534;SDS011;34323;52.022;5.686;2023-02-04T01:13:41;25.20;;;3.75;;
48534;SDS011;34323;52.022;5.686;2023-02-04T01:16:07;20.00;;;3.00;;
48534;SDS011;34323;52.022;5.686;2023-02-04T01:18:33;16.85;;;4.05;;
48534;SDS011;34323;52.022;5.686;2023-02-04T01:20:58;5.82;;;1.90;;
48534;SDS011;34323;52.022;5.686;2023-02-04T01:23:24;17.67;;;3.35;;
48534;SDS011;34323;52.022;5.686;2023-02-04T01:25:50;13.73;;;2.83;;
48534;SDS011;34323;52.022;5.686;2023-02-04T01:28:15;20.85;;;3.53;;
48534;SDS011;34323;52.022;5.686;2023-02-04T01:30:41;12.05;;;2.50;;
48534;SDS011;34323;52.022;5.686;2023-02-04T01:33:06;19.90;;;3.67;;
48534;SDS011;34323;52.022;5.686;2023-02-04T01:35:32;12.45;;;2.80;;
48534;SDS011;34323;52.022;5.686;2023-02-04T01:37:57;13.85;;;1.92;;
48534;SDS011;34323;52.022;5.686;2023-02-04T01:40:23;17.90;;;3.42;;
48534;SDS011;34323;52.022;5.686;2023-02-04T01:42:49;13.35;;;2.80;;
48534;SDS011;34323;52.022;5.686;2023-02-04T01:45:15;25.65;;;3.15;;
48534;SDS011;34323;52.022;5.686;2023-02-04T01:47:40;15.40;;;3.28;;
48534;SDS011;34323;52.022;5.686;2023-02-04T01:50:08;13.77;;;2.95;;
48534;SDS011;34323;52.022;5.686;2023-02-04T01:52:36;14.95;;;2.75;;
48534;SDS011;34323;52.022;5.686;2023-02-04T01:55:05;14.32;;;2.97;;
48534;SDS011;34323;52.022;5.686;2023-02-04T01:57:42;11.20;;;2.05;;
48534;SDS011;34323;52.022;5.686;2023-02-04T02:00:09;15.27;;;1.88;;
48534;SDS011;34323;52.022;5.686;2023-02-04T02:02:41;15.68;;;2.58;;
48534;SDS011;34323;52.022;5.686;2023-02-04T02:05:10;13.80;;;2.47;;
48534;SDS011;34323;52.022;5.686;2023-02-04T02:07:38;21.17;;;3.78;;
48534;SDS011;34323;52.022;5.686;2023-02-04T02:10:04;18.95;;;2.92;;
48534;SDS011;34323;52.022;5.686;2023-02-04T02:12:31;14.55;;;2.58;;
48534;SDS011;34323;52.022;5.686;2023-02-04T02:14:57;21.10;;;2.85;;
48534;SDS011;34323;52.022;5.686;2023-02-04T02:17:23;16.58;;;3.03;;
48534;SDS011;34323;52.022;5.686;2023-02-04T02:19:49;15.35;;;2.70;;
48534;SDS011;34323;52.022;5.686;2023-02-04T02:24:52;24.42;;;3.13;;
48534;SDS011;34323;52.022;5.686;2023-02-04T02:27:17;19.00;;;3.05;;
48534;SDS011;34323;52.022;5.686;2023-02-04T02:29:43;16.58;;;3.80;;
48534;SDS011;34323;52.022;5.686;2023-02-04T02:32:09;13.45;;;2.92;;
48534;SDS011;34323;52.022;5.686;2023-02-04T02:34:37;14.60;;;3.22;;
48534;SDS011;34323;52.022;5.686;2023-02-04T02:37:03;12.88;;;2.85;;
48534;SDS011;34323;52.022;5.686;2023-02-04T02:39:30;16.10;;;2.78;;
48534;SDS011;34323;52.022;5.686;2023-02-04T02:41:56;16.92;;;3.65;;
48534;SDS011;34323;52.022;5.686;2023-02-04T02:44:22;10.25;;;3.15;;
48534;SDS011;34323;52.022;5.686;2023-02-04T02:46:49;16.40;;;3.05;;
48534;SDS011;34323;52.022;5.686;2023-02-04T02:49:16;15.75;;;3.10;;
48534;SDS011;34323;52.022;5.686;2023-02-04T02:51:43;31.60;;;3.83;;
48534;SDS011;34323;52.022;5.686;2023-02-04T02:54:17;22.55;;;3.33;;
48534;SDS011;34323;52.022;5.686;2023-02-04T02:56:46;16.70;;;3.20;;
48534;SDS011;34323;52.022;5.686;2023-02-04T02:59:13;19.27;;;3.58;;
48534;SDS011;34323;52.022;5.686;2023-02-04T03:01:39;18.35;;;2.78;;
48534;SDS011;34323;52.022;5.686;2023-02-04T03:04:06;23.92;;;2.85;;
48534;SDS011;34323;52.022;5.686;2023-02-04T03:06:32;9.32;;;2.38;;
48534;SDS011;34323;52.022;5.686;2023-02-04T03:08:58;20.90;;;3.30;;
48534;SDS011;34323;52.022;5.686;2023-02-04T03:11:24;15.27;;;3.42;;
48534;SDS011;34323;52.022;5.686;2023-02-04T03:13:53;16.05;;;3.17;;
48534;SDS011;34323;52.022;5.686;2023-02-04T03:16:20;13.90;;;2.47;;
48534;SDS011;34323;52.022;5.686;2023-02-04T03:18:45;20.90;;;3.47;;
48534;SDS011;34323;52.022;5.686;2023-02-04T03:21:12;16.10;;;3.15;;
48534;SDS011;34323;52.022;5.686;2023-02-04T03:23:38;26.77;;;3.08;;
48534;SDS011;34323;52.022;5.686;2023-02-04T03:26:04;13.38;;;2.90;;
48534;SDS011;34323;52.022;5.686;2023-02-04T03:28:30;10.25;;;2.88;;
48534;SDS011;34323;52.022;5.686;2023-02-04T03:30:56;18.73;;;2.70;;
48534;SDS011;34323;52.022;5.686;2023-02-04T03:33:22;20.70;;;2.88;;
48534;SDS011;34323;52.022;5.686;2023-02-04T03:35:51;15.13;;;2.17;;
48534;SDS011;34323;52.022;5.686;2023-02-04T03:38:17;17.00;;;3.13;;
48534;SDS011;34323;52.022;5.686;2023-02-04T03:40:43;20.80;;;3.95;;
48534;SDS011;34323;52.022;5.686;2023-02-04T03:43:09;11.80;;;2.30;;
48534;SDS011;34323;52.022;5.686;2023-02-04T03:45:34;15.07;;;2.85;;
48534;SDS011;34323;52.022;5.686;2023-02-04T03:48:00;18.52;;;2.95;;
48534;SDS011;34323;52.022;5.686;2023-02-04T03:50:25;11.23;;;2.28;;
48534;SDS011;34323;52.022;5.686;2023-02-04T03:52:51;18.25;;;3.90;;
48534;SDS011;34323;52.022;5.686;2023-02-04T03:55:17;14.90;;;2.42;;
48534;SDS011;34323;52.022;5.686;2023-02-04T03:57:43;15.75;;;3.22;;
48534;SDS011;34323;52.022;5.686;2023-02-04T04:00:09;13.90;;;2.35;;
48534;SDS011;34323;52.022;5.686;2023-02-04T04:02:35;16.13;;;2.80;;
48534;SDS011;34323;52.022;5.686;2023-02-04T04:05:01;16.73;;;3.70;;
48534;SDS011;34323;52.022;5.686;2023-02-04T04:07:26;16.58;;;3.25;;
48534;SDS011;34323;52.022;5.686;2023-02-04T04:09:52;15.75;;;2.08;;
48534;SDS011;34323;52.022;5.686;2023-02-04T04:12:17;10.90;;;2.70;;
48534;SDS011;34323;52.022;5.686;2023-02-04T04:14:43;8.90;;;2.03;;
48534;SDS011;34323;52.022;5.686;2023-02-04T04:17:08;12.50;;;1.95;;
48534;SDS011;34323;52.022;5.686;2023-02-04T04:19:34;9.75;;;2.03;;
48534;SDS011;34323;52.022;5.686;2023-02-04T04:21:59;18.40;;;3.25;;
48534;SDS011;34323;52.022;5.686;2023-02-04T04:24:25;12.50;;;2.72;;
48534;SDS011;34323;52.022;5.686;2023-02-04T04:26:51;13.93;;;2.72;;
48534;SDS011;34323;52.022;5.686;2023-02-04T04:29:16;20.25;;;2.40;;
48534;SDS011;34323;52.022;5.686;2023-02-04T04:31:42;11.45;;;2.17;;
48534;SDS011;34323;52.022;5.686;2023-02-04T04:34:08;17.33;;;2.58;;
48534;SDS011;34323;52.022;5.686;2023-02-04T04:36:34;18.20;;;2.47;;
48534;SDS011;34323;52.022;5.686;2023-02-04T04:39:00;19.73;;;2.08;;
48534;SDS011;34323;52.022;5.686;2023-02-04T04:41:25;12.45;;;1.98;;
48534;SDS011;34323;52.022;5.686;2023-02-04T04:43:51;8.18;;;2.40;;
48534;SDS011;34323;52.022;5.686;2023-02-04T04:46:17;12.13;;;1.88;;
48534;SDS011;34323;52.022;5.686;2023-02-04T04:48:42;12.93;;;2.22;;
48534;SDS011;34323;52.022;5.686;2023-02-04T04:51:08;12.75;;;2.40;;
48534;SDS011;34323;52.022;5.686;2023-02-04T04:53:33;16.40;;;3.20;;
48534;SDS011;34323;52.022;5.686;2023-02-04T04:55:59;6.07;;;2.00;;
48534;SDS011;34323;52.022;5.686;2023-02-04T04:58:24;8.82;;;2.45;;
48534;SDS011;34323;52.022;5.686;2023-02-04T05:00:50;10.65;;;2.00;;
48534;SDS011;34323;52.022;5.686;2023-02-04T05:03:15;10.60;;;2.35;;
48534;SDS011;34323;52.022;5.686;2023-02-04T05:05:41;8.23;;;1.73;;
48534;SDS011;34323;52.022;5.686;2023-02-04T05:08:08;11.70;;;2.17;;
48534;SDS011;34323;52.022;5.686;2023-02-04T05:10:37;13.57;;;2.65;;
48534;SDS011;34323;52.022;5.686;2023-02-04T05:13:07;8.75;;;2.00;;
48534;SDS011;34323;52.022;5.686;2023-02-04T05:15:33;7.25;;;1.85;;
48534;SDS011;34323;52.022;5.686;2023-02-04T05:17:59;14.45;;;2.28;;
48534;SDS011;34323;52.022;5.686;2023-02-04T05:20:24;7.10;;;2.17;;
48534;SDS011;34323;52.022;5.686;2023-02-04T05:22:50;7.40;;;2.35;;
48534;SDS011;34323;52.022;5.686;2023-02-04T05:25:15;12.43;;;2.63;;
48534;SDS011;34323;52.022;5.686;2023-02-04T05:27:42;11.80;;;3.28;;
48534;SDS011;34323;52.022;5.686;2023-02-04T05:30:11;11.68;;;2.78;;
48534;SDS011;34323;52.022;5.686;2023-02-04T05:32:37;7.95;;;2.28;;
48534;SDS011;34323;52.022;5.686;2023-02-04T05:35:03;12.27;;;2.55;;
48534;SDS011;34323;52.022;5.686;2023-02-04T05:37:29;11.02;;;2.65;;
48534;SDS011;34323;52.022;5.686;2023-02-04T05:39:55;16.13;;;3.50;;
48534;SDS011;34323;52.022;5.686;2023-02-04T05:42:21;17.05;;;3.20;;
48534;SDS011;34323;52.022;5.686;2023-02-04T05:44:46;9.35;;;2.65;;
48534;SDS011;34323;52.022;5.686;2023-02-04T05:47:12;15.18;;;3.45;;
48534;SDS011;34323;52.022;5.686;2023-02-04T05:49:37;13.98;;;2.33;;
48534;SDS011;34323;52.022;5.686;2023-02-04T05:52:03;16.60;;;2.70;;
48534;SDS011;34323;52.022;5.686;2023-02-04T05:54:29;12.23;;;2.70;;
48534;SDS011;34323;52.022;5.686;2023-02-04T05:56:54;21.80;;;2.28;;
48534;SDS011;34323;52.022;5.686;2023-02-04T05:59:20;16.60;;;4.22;;
48534;SDS011;34323;52.022;5.686;2023-02-04T06:01:45;10.77;;;2.05;;
48534;SDS011;34323;52.022;5.686;2023-02-04T06:04:11;8.75;;;2.30;;
48534;SDS011;34323;52.022;5.686;2023-02-04T06:06:36;9.63;;;2.45;;
48534;SDS011;34323;52.022;5.686;2023-02-04T06:09:02;14.68;;;3.13;;
48534;SDS011;34323;52.022;5.686;2023-02-04T06:11:28;8.55;;;2.30;;
48534;SDS011;34323;52.022;5.686;2023-02-04T06:13:53;24.38;;;3.63;;
48534;SDS011;34323;52.022;5.686;2023-02-04T06:16:19;7.95;;;2.30;;
48534;SDS011;34323;52.022;5.686;2023-02-04T06:18:44;17.60;;;2.78;;
48534;SDS011;34323;52.022;5.686;2023-02-04T06:21:10;10.43;;;2.80;;
48534;SDS011;34323;52.022;5.686;2023-02-04T06:23:35;15.20;;;2.50;;
48534;SDS011;34323;52.022;5.686;2023-02-04T06:26:01;17.42;;;3.20;;
48534;SDS011;34323;52.022;5.686;2023-02-04T06:28:27;14.95;;;3.40;;
48534;SDS011;34323;52.022;5.686;2023-02-04T06:30:53;14.93;;;2.92;;
48534;SDS011;34323;52.022;5.686;2023-02-04T06:33:18;13.73;;;2.60;;
48534;SDS011;34323;52.022;5.686;2023-02-04T06:35:45;11.40;;;2.88;;
48534;SDS011;34323;52.022;5.686;2023-02-04T06:38:11;9.38;;;2.08;;
48534;SDS011;34323;52.022;5.686;2023-02-04T06:40:37;11.65;;;2.45;;
48534;SDS011;34323;52.022;5.686;2023-02-04T06:43:02;13.77;;;3.05;;
48534;SDS011;34323;52.022;5.686;2023-02-04T06:45:28;17.60;;;2.53;;
48534;SDS011;34323;52.022;5.686;2023-02-04T06:47:53;12.77;;;3.20;;
48534;SDS011;34323;52.022;5.686;2023-02-04T06:50:19;11.10;;;3.20;;
48534;SDS011;34323;52.022;5.686;2023-02-04T06:52:45;27.10;;;4.20;;
48534;SDS011;34323;52.022;5.686;2023-02-04T06:55:11;16.92;;;2.85;;
48534;SDS011;34323;52.022;5.686;2023-02-04T06:57:40;12.27;;;2.80;;
48534;SDS011;34323;52.022;5.686;2023-02-04T07:00:07;14.75;;;3.53;;
48534;SDS011;34323;52.022;5.686;2023-02-04T07:02:34;14.98;;;4.50;;
48534;SDS011;34323;52.022;5.686;2023-02-04T07:05:01;17.75;;;3.15;;
48534;SDS011;34323;52.022;5.686;2023-02-04T07:07:27;9.63;;;3.20;;
48534;SDS011;34323;52.022;5.686;2023-02-04T07:09:52;21.15;;;3.15;;
48534;SDS011;34323;52.022;5.686;2023-02-04T07:12:18;12.65;;;3.47;;
48534;SDS011;34323;52.022;5.686;2023-02-04T07:14:43;16.42;;;3.92;;
48534;SDS011;34323;52.022;5.686;2023-02-04T07:17:09;11.10;;;2.20;;
48534;SDS011;34323;52.022;5.686;2023-02-04T07:19:34;12.25;;;2.75;;
48534;SDS011;34323;52.022;5.686;2023-02-04T07:22:00;12.95;;;3.63;;
48534;SDS011;34323;52.022;5.686;2023-02-04T07:24:27;24.95;;;4.20;;
48534;SDS011;34323;52.022;5.686;2023-02-04T07:26:53;13.88;;;2.88;;
48534;SDS011;34323;52.022;5.686;2023-02-04T07:29:18;16.58;;;2.88;;
48534;SDS011;34323;52.022;5.686;2023-02-04T07:31:44;27.85;;;3.35;;
48534;SDS011;34323;52.022;5.686;2023-02-04T07:34:13;10.95;;;3.58;;
48534;SDS011;34323;52.022;5.686;2023-02-04T07:36:39;15.98;;;3.80;;
48534;SDS011;34323;52.022;5.686;2023-02-04T07:39:05;13.30;;;3.00;;
48534;SDS011;34323;52.022;5.686;2023-02-04T07:41:32;23.90;;;4.05;;
48534;SDS011;34323;52.022;5.686;2023-02-04T07:43:57;11.52;;;2.90;;
48534;SDS011;34323;52.022;5.686;2023-02-04T07:46:23;9.70;;;3.03;;
48534;SDS011;34323;52.022;5.686;2023-02-04T07:48:48;17.65;;;3.97;;
48534;SDS011;34323;52.022;5.686;2023-02-04T07:51:14;32.60;;;4.78;;
48534;SDS011;34323;52.022;5.686;2023-02-04T07:53:40;21.65;;;4.20;;
48534;SDS011;34323;52.022;5.686;2023-02-04T07:56:05;27.00;;;4.00;;
48534;SDS011;34323;52.022;5.686;2023-02-04T07:58:31;16.33;;;4.85;;
48534;SDS011;34323;52.022;5.686;2023-02-04T08:00:57;14.65;;;3.55;;
48534;SDS011;34323;52.022;5.686;2023-02-04T08:03:22;18.70;;;3.47;;
48534;SDS011;34323;52.022;5.686;2023-02-04T08:05:48;11.55;;;3.22;;
48534;SDS011;34323;52.022;5.686;2023-02-04T08:08:14;15.35;;;3.58;;
48534;SDS011;34323;52.022;5.686;2023-02-04T08:10:39;14.00;;;2.97;;
48534;SDS011;34323;52.022;5.686;2023-02-04T08:13:05;15.18;;;3.13;;
48534;SDS011;34323;52.022;5.686;2023-02-04T08:15:31;16.30;;;3.67;;
48534;SDS011;34323;52.022;5.686;2023-02-04T08:17:57;10.73;;;3.30;;
48534;SDS011;34323;52.022;5.686;2023-02-04T08:20:23;17.83;;;3.72;;
48534;SDS011;34323;52.022;5.686;2023-02-04T08:22:48;15.35;;;3.33;;
48534;SDS011;34323;52.022;5.686;2023-02-04T08:25:14;11.75;;;3.03;;
48534;SDS011;34323;52.022;5.686;2023-02-04T08:27:40;12.35;;;3.40;;
48534;SDS011;34323;52.022;5.686;2023-02-04T08:30:06;17.25;;;3.80;;
48534;SDS011;34323;52.022;5.686;2023-02-04T08:32:33;18.42;;;3.80;;
48534;SDS011;34323;52.022;5.686;2023-02-04T08:34:58;14.18;;;4.18;;
48534;SDS011;34323;52.022;5.686;2023-02-04T08:37:24;21.27;;;5.13;;
48534;SDS011;34323;52.022;5.686;2023-02-04T08:39:49;13.32;;;3.70;;
48534;SDS011;34323;52.022;5.686;2023-02-04T08:42:15;12.10;;;3.40;;
48534;SDS011;34323;52.022;5.686;2023-02-04T08:44:41;22.63;;;4.10;;
48534;SDS011;34323;52.022;5.686;2023-02-04T08:47:07;24.20;;;4.13;;
48534;SDS011;34323;52.022;5.686;2023-02-04T08:49:34;17.67;;;4.53;;
48534;SDS011;34323;52.022;5.686;2023-02-04T08:52:00;10.70;;;3.65;;
48534;SDS011;34323;52.022;5.686;2023-02-04T08:54:27;15.70;;;4.05;;
48534;SDS011;34323;52.022;5.686;2023-02-04T08:56:52;12.55;;;3.95;;
48534;SDS011;34323;52.022;5.686;2023-02-04T08:59:18;11.60;;;3.40;;
48534;SDS011;34323;52.022;5.686;2023-02-04T09:01:45;20.55;;;5.65;;
48534;SDS011;34323;52.022;5.686;2023-02-04T09:04:13;20.92;;;5.55;;
48534;SDS011;34323;52.022;5.686;2023-02-04T09:06:39;19.45;;;4.40;;
48534;SDS011;34323;52.022;5.686;2023-02-04T09:09:04;16.63;;;5.05;;
48534;SDS011;34323;52.022;5.686;2023-02-04T09:11:30;21.33;;;4.35;;
48534;SDS011;34323;52.022;5.686;2023-02-04T09:13:56;24.90;;;5.50;;
48534;SDS011;34323;52.022;5.686;2023-02-04T09:16:21;15.77;;;4.50;;
48534;SDS011;34323;52.022;5.686;2023-02-04T09:18:47;24.70;;;5.82;;
48534;SDS011;34323;52.022;5.686;2023-02-04T09:21:13;18.30;;;5.00;;
48534;SDS011;34323;52.022;5.686;2023-02-04T09:23:38;21.67;;;5.20;;
48534;SDS011;34323;52.022;5.686;2023-02-04T09:26:04;25.50;;;5.18;;
48534;SDS011;34323;52.022;5.686;2023-02-04T09:28:30;22.90;;;4.85;;
48534;SDS011;34323;52.022;5.686;2023-02-04T09:30:56;23.30;;;5.03;;
48534;SDS011;34323;52.022;5.686;2023-02-04T09:33:22;23.98;;;4.50;;
48534;SDS011;34323;52.022;5.686;2023-02-04T09:35:48;15.48;;;3.90;;
48534;SDS011;34323;52.022;5.686;2023-02-04T09:38:14;25.50;;;5.18;;
48534;SDS011;34323;52.022;5.686;2023-02-04T09:40:40;20.60;;;4.15;;
48534;SDS011;34323;52.022;5.686;2023-02-04T09:43:08;17.88;;;5.07;;
48534;SDS011;34323;52.022;5.686;2023-02-04T09:45:42;19.98;;;5.00;;
48534;SDS011;34323;52.022;5.686;2023-02-04T09:48:08;30.92;;;5.38;;
48534;SDS011;34323;52.022;5.686;2023-02-04T09:50:37;20.55;;;4.28;;
48534;SDS011;34323;52.022;5.686;2023-02-04T09:53:03;19.23;;;5.38;;
48534;SDS011;34323;52.022;5.686;2023-02-04T09:55:34;17.58;;;4.38;;
48534;SDS011;34323;52.022;5.686;2023-02-04T09:58:04;28.25;;;4.85;;
48534;SDS011;34323;52.022;5.686;2023-02-04T10:00:36;18.08;;;3.60;;
48534;SDS011;34323;52.022;5.686;2023-02-04T10:03:02;24.30;;;4.38;;
48534;SDS011;34323;52.022;5.686;2023-02-04T10:05:34;20.38;;;3.85;;
48534;SDS011;34323;52.022;5.686;2023-02-04T10:08:01;38.20;;;4.85;;
48534;SDS011;34323;52.022;5.686;2023-02-04T10:10:29;25.55;;;5.55;;
48534;SDS011;34323;52.022;5.686;2023-02-04T10:12:56;27.90;;;5.40;;
48534;SDS011;34323;52.022;5.686;2023-02-04T10:15:26;28.65;;;5.45;;
48534;SDS011;34323;52.022;5.686;2023-02-04T10:18:02;25.98;;;5.00;;
48534;SDS011;34323;52.022;5.686;2023-02-04T10:20:31;24.08;;;4.80;;
48534;SDS011;34323;52.022;5.686;2023-02-04T10:22:57;24.27;;;4.63;;
48534;SDS011;34323;52.022;5.686;2023-02-04T10:25:23;24.13;;;5.35;;
48534;SDS011;34323;52.022;5.686;2023-02-04T10:27:51;27.42;;;5.13;;
48534;SDS011;34323;52.022;5.686;2023-02-04T10:30:28;18.42;;;4.97;;
48534;SDS011;34323;52.022;5.686;2023-02-04T10:33:11;38.33;;;5.75;;
48534;SDS011;34323;52.022;5.686;2023-02-04T10:35:46;28.60;;;5.20;;
48534;SDS011;34323;52.022;5.686;2023-02-04T10:38:13;27.95;;;5.10;;
48534;SDS011;34323;52.022;5.686;2023-02-04T10:40:38;26.77;;;5.95;;
48534;SDS011;34323;52.022;5.686;2023-02-04T10:43:08;28.25;;;4.85;;
48534;SDS011;34323;52.022;5.686;2023-02-04T10:45:36;29.70;;;5.53;;
48534;SDS011;34323;52.022;5.686;2023-02-04T10:48:02;22.10;;;4.28;;
48534;SDS011;34323;52.022;5.686;2023-02-04T10:50:28;25.85;;;5.70;;
48534;SDS011;34323;52.022;5.686;2023-02-04T10:52:55;27.23;;;4.55;;
48534;SDS011;34323;52.022;5.686;2023-02-04T10:55:41;29.42;;;5.18;;
48534;SDS011;34323;52.022;5.686;2023-02-04T10:58:09;22.23;;;4.55;;
48534;SDS011;34323;52.022;5.686;2023-02-04T11:00:37;22.83;;;4.75;;
48534;SDS011;34323;52.022;5.686;2023-02-04T11:03:08;16.75;;;4.28;;
48534;SDS011;34323;52.022;5.686;2023-02-04T11:05:38;23.75;;;4.90;;
48534;SDS011;34323;52.022;5.686;2023-02-04T11:08:23;27.33;;;4.78;;
48534;SDS011;34323;52.022;5.686;2023-02-04T11:11:00;32.63;;;5.38;;
48534;SDS011;34323;52.022;5.686;2023-02-04T11:18:55;22.75;;;5.57;;
48534;SDS011;34323;52.022;5.686;2023-02-04T11:21:40;23.98;;;4.75;;
48534;SDS011;34323;52.022;5.686;2023-02-04T11:26:36;18.85;;;4.85;;
48534;SDS011;34323;52.022;5.686;2023-02-04T11:36:33;20.45;;;4.32;;
48534;SDS011;34323;52.022;5.686;2023-02-04T11:39:06;22.35;;;4.88;;
48534;SDS011;34323;52.022;5.686;2023-02-04T11:41:39;19.05;;;4.68;;
48534;SDS011;34323;52.022;5.686;2023-02-04T11:44:09;23.00;;;6.38;;
48534;SDS011;34323;52.022;5.686;2023-02-04T11:46:35;18.58;;;4.25;;
48534;SDS011;34323;52.022;5.686;2023-02-04T11:49:00;18.77;;;4.28;;
48534;SDS011;34323;52.022;5.686;2023-02-04T11:51:30;26.63;;;3.72;;
48534;SDS011;34323;52.022;5.686;2023-02-04T11:53:57;15.02;;;3.60;;
48534;SDS011;34323;52.022;5.686;2023-02-04T11:56:23;16.13;;;4.10;;
48534;SDS011;34323;52.022;5.686;2023-02-04T11:58:54;16.05;;;4.30;;
48534;SDS011;34323;52.022;5.686;2023-02-04T12:01:22;18.15;;;3.72;;
48534;SDS011;34323;52.022;5.686;2023-02-04T12:03:50;17.38;;;4.20;;
48534;SDS011;34323;52.022;5.686;2023-02-04T12:06:25;18.08;;;3.92;;
48534;SDS011;34323;52.022;5.686;2023-02-04T12:09:03;19.85;;;3.75;;
48534;SDS011;34323;52.022;5.686;2023-02-04T12:11:31;20.45;;;3.72;;
48534;SDS011;34323;52.022;5.686;2023-02-04T12:14:19;12.63;;;3.38;;
48534;SDS011;34323;52.022;5.686;2023-02-04T12:16:46;26.08;;;4.45;;
48534;SDS011;34323;52.022;5.686;2023-02-04T12:19:15;11.82;;;2.88;;
48534;SDS011;34323;52.022;5.686;2023-02-04T12:21:41;18.13;;;3.90;;
48534;SDS011;34323;52.022;5.686;2023-02-04T12:24:07;16.83;;;3.95;;
48534;SDS011;34323;52.022;5.686;2023-02-04T12:26:33;11.65;;;3.65;;
48534;SDS011;34323;52.022;5.686;2023-02-04T12:28:58;17.65;;;4.47;;
48534;SDS011;34323;52.022;5.686;2023-02-04T12:31:26;20.27;;;3.80;;
48534;SDS011;34323;52.022;5.686;2023-02-04T12:33:52;15.88;;;4.10;;
48534;SDS011;34323;52.022;5.686;2023-02-04T12:36:18;19.67;;;3.47;;
48534;SDS011;34323;52.022;5.686;2023-02-04T12:38:44;16.90;;;3.40;;
48534;SDS011;34323;52.022;5.686;2023-02-04T12:41:09;23.85;;;4.60;;
48534;SDS011;34323;52.022;5.686;2023-02-04T12:43:35;24.55;;;4.80;;
48534;SDS011;34323;52.022;5.686;2023-02-04T12:46:01;16.35;;;3.47;;
48534;SDS011;34323;52.022;5.686;2023-02-04T12:48:26;19.13;;;3.10;;
48534;SDS011;34323;52.022;5.686;2023-02-04T12:50:52;15.40;;;2.83;;
48534;SDS011;34323;52.022;5.686;2023-02-04T12:53:18;19.20;;;3.38;;
48534;SDS011;34323;52.022;5.686;2023-02-04T12:55:43;13.52;;;2.58;;
48534;SDS011;34323;52.022;5.686;2023-02-04T12:58:09;18.70;;;2.72;;
48534;SDS011;34323;52.022;5.686;2023-02-04T13:00:34;16.20;;;2.53;;
48534;SDS011;34323;52.022;5.686;2023-02-04T13:03:00;14.77;;;2.22;;
48534;SDS011;34323;52.022;5.686;2023-02-04T13:05:26;15.80;;;2.25;;
48534;SDS011;34323;52.022;5.686;2023-02-04T13:07:51;16.80;;;2.60;;
48534;SDS011;34323;52.022;5.686;2023-02-04T13:10:17;29.52;;;4.50;;
48534;SDS011;34323;52.022;5.686;2023-02-04T13:12:45;16.88;;;3.15;;
48534;SDS011;34323;52.022;5.686;2023-02-04T13:15:11;14.65;;;2.92;;
48534;SDS011;34323;52.022;5.686;2023-02-04T13:17:37;23.02;;;2.78;;
48534;SDS011;34323;52.022;5.686;2023-02-04T13:20:03;18.23;;;2.92;;
48534;SDS011;34323;52.022;5.686;2023-02-04T13:22:29;18.00;;;3.65;;
48534;SDS011;34323;52.022;5.686;2023-02-04T13:24:55;16.75;;;3.45;;
48534;SDS011;34323;52.022;5.686;2023-02-04T13:27:20;14.57;;;3.03;;
48534;SDS011;34323;52.022;5.686;2023-02-04T13:29:46;13.25;;;2.80;;
48534;SDS011;34323;52.022;5.686;2023-02-04T13:32:12;16.58;;;2.75;;
48534;SDS011;34323;52.022;5.686;2023-02-04T13:34:37;16.38;;;3.13;;
48534;SDS011;34323;52.022;5.686;2023-02-04T13:37:03;12.75;;;3.28;;
48534;SDS011;34323;52.022;5.686;2023-02-04T13:39:28;18.17;;;2.47;;
48534;SDS011;34323;52.022;5.686;2023-02-04T13:41:54;18.33;;;3.25;;
48534;SDS011;34323;52.022;5.686;2023-02-04T13:44:20;17.13;;;2.95;;
48534;SDS011;34323;52.022;5.686;2023-02-04T13:46:46;24.77;;;3.92;;
48534;SDS011;34323;52.022;5.686;2023-02-04T13:49:11;12.75;;;2.30;;
48534;SDS011;34323;52.022;5.686;2023-02-04T13:51:37;24.25;;;3.00;;
48534;SDS011;34323;52.022;5.686;2023-02-04T13:54:02;17.05;;;3.20;;
48534;SDS011;34323;52.022;5.686;2023-02-04T13:56:28;22.95;;;3.58;;
48534;SDS011;34323;52.022;5.686;2023-02-04T13:58:56;14.73;;;3.70;;
48534;SDS011;34323;52.022;5.686;2023-02-04T14:01:22;17.13;;;2.70;;
48534;SDS011;34323;52.022;5.686;2023-02-04T14:03:48;23.40;;;2.38;;
48534;SDS011;34323;52.022;5.686;2023-02-04T14:06:13;14.65;;;2.90;;
48534;SDS011;34323;52.022;5.686;2023-02-04T14:08:39;15.60;;;3.15;;
48534;SDS011;34323;52.022;5.686;2023-02-04T14:11:05;24.80;;;4.15;;
48534;SDS011;34323;52.022;5.686;2023-02-04T14:13:31;25.20;;;3.45;;
48534;SDS011;34323;52.022;5.686;2023-02-04T14:15:57;13.00;;;2.83;;
48534;SDS011;34323;52.022;5.686;2023-02-04T14:18:23;20.23;;;2.70;;
48534;SDS011;34323;52.022;5.686;2023-02-04T14:20:48;22.20;;;3.08;;
48534;SDS011;34323;52.022;5.686;2023-02-04T14:23:14;18.20;;;3.28;;
48534;SDS011;34323;52.022;5.686;2023-02-04T14:25:39;9.10;;;2.53;;
48534;SDS011;34323;52.022;5.686;2023-02-04T14:28:05;15.02;;;3.00;;
48534;SDS011;34323;52.022;5.686;2023-02-04T14:30:31;18.45;;;3.17;;
48534;SDS011;34323;52.022;5.686;2023-02-04T14:32:57;11.40;;;2.58;;
48534;SDS011;34323;52.022;5.686;2023-02-04T14:35:23;15.85;;;2.50;;
48534;SDS011;34323;52.022;5.686;2023-02-04T14:37:49;21.40;;;3.13;;
48534;SDS011;34323;52.022;5.686;2023-02-04T14:40:15;14.13;;;2.75;;
48534;SDS011;34323;52.022;5.686;2023-02-04T14:42:42;20.23;;;3.53;;
48534;SDS011;34323;52.022;5.686;2023-02-04T14:45:08;28.15;;;3.58;;
48534;SDS011;34323;52.022;5.686;2023-02-04T14:47:36;20.48;;;3.55;;
48534;SDS011;34323;52.022;5.686;2023-02-04T14:50:04;17.70;;;2.80;;